createdAt,value
2022-12-11T00:00:39.068Z,1.37
2022-12-11T00:03:41.967Z,1.34
2022-12-11T00:06:44.707Z,1.55
2022-12-11T00:09:47.425Z,1.37
2022-12-11T00:12:51.451Z,1.31
2022-12-11T00:15:54.113Z,1.44
2022-12-11T00:18:56.813Z,1.59
2022-12-11T00:21:59.468Z,1.46
2022-12-11T00:25:02.168Z,1.53
2022-12-11T00:28:06.276Z,1.60
2022-12-11T00:31:10.776Z,1.51
2022-12-11T00:34:13.675Z,1.38
2022-12-11T00:37:16.474Z,1.40
2022-12-11T00:40:19.251Z,1.51
2022-12-11T00:43:23.297Z,1.50
2022-12-11T00:46:25.982Z,1.45
2022-12-11T00:49:28.860Z,1.50
2022-12-11T00:52:31.513Z,1.52
2022-12-11T00:55:38.725Z,1.46
2022-12-11T00:58:42.945Z,1.29
2022-12-11T01:01:45.711Z,1.33
2022-12-11T01:04:48.404Z,1.14
2022-12-11T01:07:51.156Z,1.38
2022-12-11T01:11:02.462Z,1.49
2022-12-11T01:14:06.629Z,1.44
2022-12-11T01:17:09.278Z,1.45
2022-12-11T01:20:12.761Z,1.43
2022-12-11T01:23:15.520Z,1.51
2022-12-11T01:26:18.686Z,1.42
2022-12-11T01:29:22.740Z,1.55
2022-12-11T01:32:25.464Z,1.50
2022-12-11T01:35:29.018Z,1.52
2022-12-11T01:38:31.707Z,1.51
2022-12-11T01:41:34.415Z,1.46
2022-12-11T01:45:19.643Z,1.53
2022-12-11T01:48:26.483Z,1.47
2022-12-11T01:51:32.166Z,1.49
2022-12-11T01:54:36.322Z,1.44
2022-12-11T01:57:42.299Z,1.46
2022-12-11T02:00:45.091Z,1.39
2022-12-11T02:03:49.585Z,1.48
2022-12-11T02:06:53.319Z,1.50
2022-12-11T02:09:56.019Z,1.53
2022-12-11T02:13:04.816Z,1.45
2022-12-11T02:16:16.821Z,1.50
2022-12-11T02:19:38.249Z,1.43
2022-12-11T02:22:58.466Z,1.53
2022-12-11T02:26:13.199Z,1.37
2022-12-11T02:29:23.893Z,1.47
2022-12-11T02:32:31.371Z,1.44
2022-12-11T02:35:38.938Z,1.42
2022-12-11T02:38:46.792Z,1.48
2022-12-11T02:41:52.339Z,1.38
2022-12-11T02:45:00.078Z,1.12
2022-12-11T02:48:06.555Z,1.36
2022-12-11T02:51:11.431Z,1.39
2022-12-11T02:54:20.537Z,1.38
2022-12-11T02:57:28.792Z,1.40
2022-12-11T03:00:33.008Z,1.42
2022-12-11T03:03:35.637Z,1.43
2022-12-11T03:06:44.275Z,1.45
2022-12-11T03:09:48.509Z,1.48
2022-12-11T03:12:55.715Z,1.48
2022-12-11T03:16:11.920Z,1.49
2022-12-11T03:19:23.445Z,1.52
2022-12-11T03:22:33.689Z,1.57
2022-12-11T03:25:45.734Z,1.48
2022-12-11T03:28:50.586Z,1.62
2022-12-11T03:31:59.433Z,1.61
2022-12-11T03:35:06.329Z,1.57
2022-12-11T03:38:14.654Z,1.60
2022-12-11T03:41:20.211Z,1.55
2022-12-11T03:44:25.103Z,1.53
2022-12-11T03:47:30.998Z,1.47
2022-12-11T03:50:36.470Z,1.50
2022-12-11T03:53:40.107Z,1.59
2022-12-11T03:56:45.122Z,1.62
2022-12-11T03:59:48.361Z,1.54
2022-12-11T04:03:12.710Z,1.54
2022-12-11T04:06:15.810Z,1.55
2022-12-11T04:09:18.498Z,1.52
2022-12-11T04:12:21.266Z,1.63
2022-12-11T04:15:23.868Z,1.68
2022-12-11T04:18:45.227Z,1.67
2022-12-11T04:22:05.449Z,1.58
2022-12-11T04:25:09.649Z,1.56
2022-12-11T04:28:12.531Z,1.52
2022-12-11T04:31:16.039Z,1.54
2022-12-11T04:34:20.087Z,1.68
2022-12-11T04:37:22.695Z,1.57
2022-12-11T04:40:25.632Z,1.75
2022-12-11T04:43:28.528Z,1.70
2022-12-11T04:46:31.568Z,1.59
2022-12-11T04:49:35.551Z,1.50
2022-12-11T04:52:38.161Z,1.57
2022-12-11T04:55:40.799Z,1.64
2022-12-11T04:58:45.124Z,1.70
2022-12-11T05:01:47.844Z,1.59
2022-12-11T05:04:51.999Z,1.56
2022-12-11T05:07:54.607Z,1.58
2022-12-11T05:10:58.073Z,1.66
2022-12-11T05:14:00.639Z,1.44
2022-12-11T05:17:03.284Z,1.49
2022-12-11T05:20:09.389Z,1.51
2022-12-11T05:23:11.977Z,1.53
2022-12-11T05:26:17.363Z,1.55
2022-12-11T05:29:19.980Z,1.52
2022-12-11T05:32:22.640Z,1.32
2022-12-11T05:35:26.607Z,1.15
2022-12-11T05:38:29.263Z,1.20
2022-12-11T05:41:33.504Z,1.20
2022-12-11T05:44:36.162Z,1.03
2022-12-11T05:47:38.869Z,0.96
2022-12-11T05:50:42.818Z,1.21
2022-12-11T05:53:47.199Z,1.09
2022-12-11T05:56:51.364Z,0.83
2022-12-11T05:59:53.948Z,0.74
2022-12-11T06:02:56.584Z,0.68
2022-12-11T06:06:02.739Z,0.70
2022-12-11T06:09:06.438Z,0.50
2022-12-11T06:12:09.012Z,0.51
2022-12-11T06:15:12.137Z,0.50
2022-12-11T06:18:14.877Z,0.56
2022-12-11T06:21:20.782Z,0.44
2022-12-11T06:24:23.389Z,0.38
2022-12-11T06:27:25.953Z,0.36
2022-12-11T06:30:38.283Z,0.40
2022-12-11T06:33:42.185Z,0.31
2022-12-11T06:36:46.108Z,0.24
2022-12-11T06:39:48.700Z,0.17
2022-12-11T06:42:51.303Z,0.14
2022-12-11T06:45:55.911Z,0.06
2022-12-11T06:49:01.815Z,-0.04
2022-12-11T06:52:06.545Z,-0.01
2022-12-11T06:55:09.945Z,-0.04
2022-12-11T06:58:12.888Z,-0.17
2022-12-11T07:01:18.395Z,-0.19
2022-12-11T07:04:24.597Z,-0.24
2022-12-11T07:07:28.566Z,-0.11
2022-12-11T07:10:31.196Z,-0.22
2022-12-11T07:13:34.421Z,-0.22
2022-12-11T07:16:37.536Z,-0.25
2022-12-11T07:19:40.710Z,-0.37
2022-12-11T07:22:46.846Z,-0.31
2022-12-11T07:25:49.593Z,-0.33
2022-12-11T07:28:52.315Z,-0.41
2022-12-11T07:31:55.028Z,-0.37
2022-12-11T07:34:57.699Z,-0.53
2022-12-11T07:38:01.621Z,-0.57
2022-12-11T07:41:05.280Z,-0.41
2022-12-11T07:44:07.876Z,-0.44
2022-12-11T07:47:10.456Z,-0.45
2022-12-11T07:50:13.143Z,-0.55
2022-12-11T07:53:17.113Z,-0.59
2022-12-11T07:56:20.274Z,-0.55
2022-12-11T07:59:22.910Z,-0.46
2022-12-11T08:02:25.545Z,-0.47
2022-12-11T08:05:28.395Z,-0.41
2022-12-11T08:08:32.543Z,-0.42
2022-12-11T08:11:35.541Z,-0.49
2022-12-11T08:14:38.166Z,-0.60
2022-12-11T08:17:40.842Z,-0.52
2022-12-11T08:20:43.415Z,-0.54
2022-12-11T08:23:47.564Z,-0.52
2022-12-11T08:26:50.270Z,-0.47
2022-12-11T08:29:52.838Z,-0.49
2022-12-11T08:32:55.429Z,-0.41
2022-12-11T08:35:58.524Z,-0.50
2022-12-11T08:39:02.479Z,-0.51
2022-12-11T08:42:05.283Z,-0.50
2022-12-11T08:45:09.447Z,-0.27
2022-12-11T08:48:12.388Z,-0.37
2022-12-11T08:51:17.623Z,-0.44
2022-12-11T08:54:21.551Z,-0.27
2022-12-11T08:57:24.134Z,-0.36
2022-12-11T09:00:26.737Z,-0.25
2022-12-11T09:03:29.309Z,-0.10
2022-12-11T09:06:34.288Z,-0.08
2022-12-11T09:09:38.229Z,0.06
2022-12-11T09:12:41.476Z,0.13
2022-12-11T09:15:44.246Z,0.12
2022-12-11T09:18:47.453Z,0.15
2022-12-11T09:21:50.099Z,0.25
2022-12-11T09:24:54.029Z,0.29
2022-12-11T09:27:56.618Z,0.20
2022-12-11T09:30:59.643Z,0.26
2022-12-11T09:34:04.916Z,0.30
2022-12-11T09:37:07.497Z,0.41
2022-12-11T09:40:13.759Z,0.47
2022-12-11T09:43:37.269Z,0.47
2022-12-11T09:46:41.627Z,0.48
2022-12-11T09:49:46.593Z,0.57
2022-12-11T09:52:58.817Z,0.69
2022-12-11T09:56:08.315Z,0.77
2022-12-11T09:59:22.775Z,0.66
2022-12-11T10:02:40.899Z,0.82
2022-12-11T10:05:51.243Z,0.86
2022-12-11T10:09:04.200Z,0.55
2022-12-11T10:12:21.704Z,0.65
2022-12-11T10:15:40.766Z,0.86
2022-12-11T10:18:43.687Z,0.80
2022-12-11T10:21:47.632Z,0.64
2022-12-11T10:25:10.635Z,0.93
2022-12-11T10:28:17.394Z,1.14
2022-12-11T10:31:24.130Z,1.11
2022-12-11T10:34:35.229Z,1.05
2022-12-11T10:37:37.884Z,1.19
2022-12-11T10:40:43.790Z,1.12
2022-12-11T10:43:49.983Z,1.59
2022-12-11T10:47:03.949Z,2.01
2022-12-11T10:50:07.064Z,2.40
2022-12-11T10:53:21.380Z,2.69
2022-12-11T10:56:29.228Z,3.01
2022-12-11T10:59:37.543Z,3.49
2022-12-11T11:02:41.885Z,3.78
2022-12-11T11:05:49.242Z,4.42
2022-12-11T11:08:53.764Z,5.16
2022-12-11T11:11:56.366Z,5.57
2022-12-11T11:15:05.636Z,5.05
2022-12-11T11:18:13.557Z,4.51
2022-12-11T11:21:17.775Z,4.03
2022-12-11T11:24:28.757Z,3.19
2022-12-11T11:27:36.930Z,2.70
2022-12-11T11:30:42.867Z,2.49
2022-12-11T11:33:52.308Z,2.40
2022-12-11T11:37:00.899Z,2.20
2022-12-11T11:40:09.937Z,2.21
2022-12-11T11:43:19.968Z,2.11
2022-12-11T11:46:27.161Z,2.10
2022-12-11T11:49:45.469Z,2.05
2022-12-11T11:52:53.029Z,1.99
2022-12-11T11:56:04.016Z,1.76
2022-12-11T11:59:15.125Z,1.93
2022-12-11T12:02:20.853Z,2.01
2022-12-11T12:05:39.282Z,1.83
2022-12-11T12:08:47.560Z,2.00
2022-12-11T12:11:57.334Z,2.03
2022-12-11T12:15:11.166Z,2.08
2022-12-11T12:18:26.047Z,2.16
2022-12-11T12:21:35.205Z,2.03
2022-12-11T12:24:48.234Z,2.32
2022-12-11T12:28:00.501Z,2.21
2022-12-11T12:31:18.112Z,2.25
2022-12-11T12:34:37.743Z,2.53
2022-12-11T12:37:52.018Z,2.62
2022-12-11T12:41:03.818Z,2.65
2022-12-11T12:44:16.809Z,2.60
2022-12-11T12:47:20.859Z,2.60
2022-12-11T12:50:28.303Z,2.68
2022-12-11T12:53:35.699Z,2.62
2022-12-11T12:56:40.575Z,2.63
2022-12-11T12:59:43.163Z,2.63
2022-12-11T13:02:51.201Z,2.59
2022-12-11T13:06:00.378Z,2.64
2022-12-11T13:09:17.003Z,2.63
2022-12-11T13:12:32.915Z,2.64
2022-12-11T13:15:40.885Z,2.51
2022-12-11T13:18:45.218Z,2.56
2022-12-11T13:21:58.269Z,2.56
2022-12-11T13:25:04.739Z,2.69
2022-12-11T13:28:08.675Z,2.62
2022-12-11T13:31:33.612Z,2.49
2022-12-11T13:34:38.923Z,2.55
2022-12-11T13:37:45.196Z,2.44
2022-12-11T13:40:53.120Z,2.36
2022-12-11T13:43:58.389Z,2.30
2022-12-11T13:47:04.514Z,2.38
2022-12-11T13:50:23.888Z,2.51
2022-12-11T13:53:28.214Z,2.46
2022-12-11T13:56:30.817Z,2.43
2022-12-11T13:59:35.845Z,2.61
2022-12-11T14:02:42.437Z,2.77
2022-12-11T14:05:45.234Z,2.67
2022-12-11T14:08:53.873Z,2.79
2022-12-11T14:11:59.073Z,2.85
2022-12-11T14:15:04.504Z,2.75
2022-12-11T14:18:07.279Z,2.65
2022-12-11T14:21:19.981Z,2.68
2022-12-11T14:24:24.257Z,2.60
2022-12-11T14:27:28.662Z,2.72
2022-12-11T14:30:34.237Z,2.71
2022-12-11T14:33:42.003Z,2.52
2022-12-11T14:36:46.062Z,2.59
2022-12-11T14:39:57.777Z,2.42
2022-12-11T14:43:03.962Z,2.53
2022-12-11T14:46:11.954Z,2.47
2022-12-11T14:49:20.240Z,2.52
2022-12-11T14:52:30.172Z,2.47
2022-12-11T14:55:36.513Z,2.49
2022-12-11T14:58:43.279Z,2.52
2022-12-11T15:01:46.214Z,2.46
2022-12-11T15:05:06.251Z,2.48
2022-12-11T15:08:24.623Z,2.28
2022-12-11T15:11:32.881Z,2.46
2022-12-11T15:14:35.728Z,2.36
2022-12-11T15:17:38.352Z,2.33
2022-12-11T15:20:41.038Z,2.39
2022-12-11T15:23:52.353Z,2.38
2022-12-11T15:27:00.978Z,2.42
2022-12-11T15:30:03.854Z,2.40
2022-12-11T15:33:20.260Z,2.31
2022-12-11T15:36:26.541Z,2.30
2022-12-11T15:39:29.141Z,2.41
2022-12-11T15:42:36.220Z,2.43
2022-12-11T15:45:38.800Z,2.37
2022-12-11T15:48:41.439Z,2.36
2022-12-11T15:51:44.012Z,2.33
2022-12-11T15:54:46.641Z,2.25
2022-12-11T15:57:55.158Z,2.34
2022-12-11T16:00:59.003Z,2.28
2022-12-11T16:04:05.187Z,2.23
2022-12-11T16:07:16.257Z,2.17
2022-12-11T16:10:20.504Z,2.17
2022-12-11T16:13:24.443Z,2.33
2022-12-11T16:16:27.032Z,2.27
2022-12-11T16:19:29.631Z,2.22
2022-12-11T16:22:32.237Z,2.07
2022-12-11T16:25:35.093Z,2.14
2022-12-11T16:28:39.018Z,2.16
2022-12-11T16:31:41.604Z,2.21
2022-12-11T16:34:44.837Z,2.22
2022-12-11T16:37:50.172Z,2.11
2022-12-11T16:41:00.763Z,2.22
2022-12-11T16:44:04.897Z,2.24
2022-12-11T16:47:07.592Z,2.21
2022-12-11T16:50:10.922Z,2.08
2022-12-11T16:53:15.294Z,2.10
2022-12-11T16:56:17.880Z,2.16
2022-12-11T16:59:21.849Z,2.15
2022-12-11T17:02:24.584Z,2.18
2022-12-11T17:05:27.218Z,2.29
2022-12-11T17:08:29.874Z,2.29
2022-12-11T17:11:32.495Z,2.20
2022-12-11T17:14:36.549Z,2.13
2022-12-11T17:17:39.216Z,2.21
2022-12-11T17:20:42.655Z,2.22
2022-12-11T17:23:45.803Z,2.19
2022-12-11T17:26:48.456Z,2.24
2022-12-11T17:29:52.384Z,2.16
2022-12-11T17:32:54.963Z,2.13
2022-12-11T17:36:00.306Z,2.19
2022-12-11T17:39:02.982Z,2.16
2022-12-11T17:42:06.308Z,2.14
2022-12-11T17:45:11.597Z,2.17
2022-12-11T17:48:15.256Z,2.27
2022-12-11T17:51:23.573Z,2.21
2022-12-11T17:54:26.236Z,2.14
2022-12-11T17:57:28.820Z,2.15
2022-12-11T18:00:33.497Z,2.13
2022-12-11T18:03:36.898Z,2.02
2022-12-11T18:06:39.595Z,2.09
2022-12-11T18:09:42.501Z,2.07
2022-12-11T18:12:45.245Z,2.09
2022-12-11T18:16:00.418Z,2.11
2022-12-11T18:19:03.111Z,2.11
2022-12-11T18:22:05.693Z,2.20
2022-12-11T18:25:10.155Z,2.15
2022-12-11T18:28:14.319Z,2.20
2022-12-11T18:31:19.487Z,2.16
2022-12-11T18:34:22.150Z,2.12
2022-12-11T18:37:27.884Z,2.09
2022-12-11T18:40:30.905Z,2.07
2022-12-11T18:43:33.597Z,2.09
2022-12-11T18:46:39.240Z,2.14
2022-12-11T18:49:41.902Z,2.16
2022-12-11T18:52:44.470Z,2.12
2022-12-11T18:55:49.793Z,2.12
2022-12-11T18:58:53.074Z,2.04
2022-12-11T19:01:57.034Z,2.18
2022-12-11T19:04:59.672Z,2.17
2022-12-11T19:08:02.495Z,2.07
2022-12-11T19:11:05.394Z,2.12
2022-12-11T19:14:09.294Z,2.09
2022-12-11T19:17:13.271Z,2.14
2022-12-11T19:20:47.651Z,2.05
2022-12-11T19:23:38.594Z,2.07
2022-12-11T19:26:41.240Z,2.17
2022-12-11T19:29:43.834Z,2.11
2022-12-11T19:32:47.841Z,2.07
2022-12-11T19:35:50.474Z,2.05
2022-12-11T19:38:57.928Z,2.20
2022-12-11T19:42:03.722Z,2.10
2022-12-11T19:45:07.455Z,2.07
2022-12-11T19:48:11.639Z,2.15
2022-12-11T19:51:16.620Z,2.18
2022-12-11T19:54:19.330Z,2.10
2022-12-11T19:57:21.907Z,2.07
2022-12-11T20:00:24.578Z,2.14
2022-12-11T20:03:28.995Z,2.20
2022-12-11T20:06:33.491Z,2.09
2022-12-11T20:09:36.100Z,1.99
2022-12-11T20:12:38.712Z,2.22
2022-12-11T20:15:41.581Z,2.28
2022-12-11T20:18:46.181Z,2.21
2022-12-11T20:21:48.993Z,2.12
2022-12-11T20:24:51.776Z,2.14
2022-12-11T20:27:55.570Z,2.12
2022-12-11T20:31:04.743Z,2.14
2022-12-11T20:34:08.880Z,2.12
2022-12-11T20:37:11.494Z,2.12
2022-12-11T20:40:14.306Z,2.07
2022-12-11T20:43:17.086Z,2.08
2022-12-11T20:46:20.298Z,2.14
2022-12-11T20:49:24.334Z,2.23
2022-12-11T20:52:27.930Z,2.24
2022-12-11T20:55:30.518Z,2.16
2022-12-11T20:58:33.104Z,2.27
2022-12-11T21:01:35.852Z,2.10
2022-12-11T21:04:41.240Z,2.20
2022-12-11T21:07:43.856Z,2.18
2022-12-11T21:10:47.272Z,2.10
2022-12-11T21:13:50.488Z,2.28
2022-12-11T21:16:53.156Z,2.32
2022-12-11T21:19:57.138Z,2.26
2022-12-11T21:22:59.874Z,2.15
2022-12-11T21:26:03.121Z,2.18
2022-12-11T21:29:05.758Z,2.26
2022-12-11T21:32:08.429Z,2.11
2022-12-11T21:35:13.429Z,2.01
2022-12-11T21:38:16.239Z,2.09
2022-12-11T21:41:21.483Z,2.06
2022-12-11T21:47:46.654Z,2.01
2022-12-11T21:50:51.553Z,2.00
2022-12-11T21:53:54.583Z,2.05
2022-12-11T21:56:57.642Z,1.98
2022-12-11T22:00:00.818Z,1.99
2022-12-11T22:03:03.426Z,2.02
2022-12-11T22:06:07.978Z,2.02
2022-12-11T22:09:12.345Z,1.94
2022-12-11T22:12:23.049Z,2.02
2022-12-11T22:15:25.649Z,2.04
2022-12-11T22:18:28.409Z,1.97
2022-12-11T22:21:32.411Z,1.98
2022-12-11T22:24:34.997Z,1.84
2022-12-11T22:27:37.579Z,1.92
2022-12-11T22:30:40.264Z,1.89
2022-12-11T22:33:43.084Z,1.95
2022-12-11T22:36:47.036Z,2.00
2022-12-11T22:39:49.689Z,1.89
2022-12-11T22:42:52.316Z,1.99
2022-12-11T22:45:55.105Z,2.02
2022-12-11T22:48:59.354Z,2.05
2022-12-11T22:52:03.302Z,2.03
2022-12-11T22:55:07.148Z,2.11
2022-12-11T22:58:09.746Z,2.05
2022-12-11T23:01:14.874Z,2.13
2022-12-11T23:04:17.487Z,2.00
2022-12-11T23:07:21.439Z,1.99
2022-12-11T23:10:24.037Z,2.12
2022-12-11T23:13:26.662Z,2.04
2022-12-11T23:16:29.731Z,2.04
2022-12-11T23:19:32.535Z,1.97
2022-12-11T23:22:36.479Z,1.90
2022-12-11T23:25:39.124Z,1.99
2022-12-11T23:28:42.563Z,1.99
2022-12-11T23:31:45.188Z,2.08
2022-12-11T23:34:47.785Z,1.98
2022-12-11T23:37:51.745Z,2.02
2022-12-11T23:40:55.081Z,2.11
2022-12-11T23:43:57.656Z,2.12
2022-12-11T23:47:00.516Z,2.19
2022-12-11T23:50:03.094Z,2.10
2022-12-11T23:53:07.333Z,2.02
2022-12-11T23:56:14.765Z,2.10
2022-12-11T23:59:17.353Z,2.04
